Time;durP1;ratioP1;P1;durP2;ratioP2;P2;SDS_P1;SDS_P2;PMS_P1;PMS_P2;Temp;Humidity;BMP_temperature;BMP_pressure;BME280_temperature;BME280_humidity;BME280_pressure;Samples;Min_cycle;Max_cycle;Signal;HPM_P1;HPM_P2
2024/01/11 00:03:04;;;;;;;;;;;;;;;0.15;56.11;101877.56;5370265;32;34476;-74
2024/01/11 00:06:30;;;;;;;;;;;;;;;-0.73;58.69;101874.16;5392934;32;34331;-74
2024/01/11 00:10:02;;;;;;;;;;;;;;;-0.96;60.21;101873.47;5337086;32;34520;-74
2024/01/11 00:13:27;;;;;;;;;;;;;;;-0.31;58.57;101872.00;5335909;32;35707;-74
2024/01/11 00:16:52;;;;;;;;;;;;;;;-0.69;59.96;101863.13;5306108;33;35448;-73
2024/01/11 00:20:25;;;;;;;;;;;;;;;-0.93;60.95;101867.53;5344964;32;35677;-73
2024/01/11 00:24:07;;;;;;;;;;;;;;;-0.32;59.10;101869.38;5345886;32;34325;-74
2024/01/11 00:27:40;;;;;;;;;;;;;;;-0.11;58.36;101864.81;5348901;32;33576;-74
2024/01/11 00:30:50;;;;;;;;;;;;;;;-0.37;58.50;101861.47;5348035;32;36087;-73
2024/01/11 00:34:23;;;;;;;;;;;;;;;-0.58;60.07;101858.25;5351825;32;34247;-73
2024/01/11 00:37:38;;;;;;;;;;;;;;;-0.49;59.26;101855.09;5345916;32;35332;-73
2024/01/11 00:41:20;;;;;;;;;;;;;;;-0.44;58.55;101851.81;5379673;32;34687;-74
2024/01/11 00:44:47;;;;;;;;;;;;;;;-0.76;60.81;101868.06;5360637;32;35967;-73
2024/01/11 00:48:36;;;;;;;;;;;;;;;-0.22;58.55;101850.69;5362620;32;33122;-72
2024/01/11 00:52:09;;;;;;;;;;;;;;;-0.81;59.80;101852.41;5310746;33;36595;-75
2024/01/11 00:55:27;;;;;;;;;;;;;;;-0.66;59.84;101852.88;5330112;33;35319;-75
2024/01/11 00:58:36;;;;;;;;;;;;;;;-0.98;61.01;101854.47;5326040;33;35288;-76
2024/01/11 01:01:56;;;;;;;;;;;;;;;-0.60;60.68;101847.00;5333980;32;35457;-72
2024/01/11 01:05:06;;;;;;;;;;;;;;;-1.13;62.05;101841.97;5321217;32;34160;-73
2024/01/11 01:08:20;;;;;;;;;;;;;;;-0.84;61.99;101837.72;5326134;32;34231;-74
2024/01/11 01:11:26;;;;;;;;;;;;;;;-0.87;61.05;101831.56;5331816;33;34195;-73
2024/01/11 01:15:06;;;;;;;;;;;;;;;-1.27;62.57;101825.19;5290547;33;35973;-73
2024/01/11 01:18:36;;;;;;;;;;;;;;;-0.86;61.92;101820.41;5289217;33;35698;-75
2024/01/11 01:22:11;;;;;;;;;;;;;;;-1.53;63.23;101826.91;5327320;32;37399;-75
2024/01/11 01:25:30;;;;;;;;;;;;;;;-1.43;63.46;101822.91;5327207;32;35668;-75
2024/01/11 01:29:01;;;;;;;;;;;;;;;-1.81;64.57;101822.50;5308848;33;35931;-74
2024/01/11 01:32:31;;;;;;;;;;;;;;;-1.47;63.36;101815.91;5321077;33;35000;-73
2024/01/11 01:36:06;;;;;;;;;;;;;;;-1.47;63.16;101814.22;5327902;32;35433;-74
2024/01/11 01:39:46;;;;;;;;;;;;;;;-1.61;64.10;101809.41;5335075;32;35298;-75
2024/01/11 01:43:19;;;;;;;;;;;;;;;-1.06;62.91;101806.03;5328343;32;34953;-74
2024/01/11 01:46:34;;;;;;;;;;;;;;;-1.74;64.06;101811.59;5334550;32;33249;-73
2024/01/11 01:49:40;;;;;;;;;;;;;;;-1.52;64.46;101802.00;5337324;32;34631;-75
2024/01/11 01:53:01;;;;;;;;;;;;;;;-1.57;64.95;101799.25;5320931;32;34552;-73
2024/01/11 01:56:22;;;;;;;;;;;;;;;-1.43;63.78;101792.84;5337493;32;35520;-73
2024/01/11 01:59:46;;;;;;;;;;;;;;;-1.12;63.22;101784.34;5335324;32;34861;-74
2024/01/11 02:03:05;;;;;;;;;;;;;;;-1.52;64.55;101783.94;5321340;32;34628;-73
2024/01/11 02:06:21;;;;;;;;;;;;;;;-1.67;65.02;101782.63;5338548;32;34258;-73
2024/01/11 02:09:43;;;;;;;;;;;;;;;-0.90;63.18;101770.41;5345605;32;34796;-73
2024/01/11 02:13:08;;;;;;;;;;;;;;;-0.66;61.80;101766.78;5330739;32;34239;-74
2024/01/11 02:16:27;;;;;;;;;;;;;;;-0.70;61.50;101749.47;5346989;32;35061;-74
2024/01/11 02:19:48;;;;;;;;;;;;;;;-1.16;63.40;101759.31;5345205;32;34299;-75
2024/01/11 02:23:22;;;;;;;;;;;;;;;-1.11;63.18;101755.16;5341466;32;33657;-74
2024/01/11 02:27:27;;;;;;;;;;;;;;;-1.34;64.10;101748.44;5329976;32;34447;-76
2024/01/11 02:30:39;;;;;;;;;;;;;;;-0.78;62.99;101744.06;5263528;33;35714;-73
2024/01/11 02:33:50;;;;;;;;;;;;;;;-0.57;61.47;101739.53;5272097;33;34237;-74
2024/01/11 02:37:08;;;;;;;;;;;;;;;-1.27;62.77;101741.75;5274841;33;34504;-72
2024/01/11 02:40:39;;;;;;;;;;;;;;;-1.43;63.45;101725.78;5302254;33;34200;-74
2024/01/11 02:43:57;;;;;;;;;;;;;;;-1.48;63.54;101729.03;5323006;33;34184;-74
2024/01/11 02:47:14;;;;;;;;;;;;;;;-1.13;62.76;101727.56;5329122;33;34408;-73
2024/01/11 02:50:49;;;;;;;;;;;;;;;-0.70;61.26;101715.91;5323757;33;38340;-74
2024/01/11 02:54:01;;;;;;;;;;;;;;;-1.40;62.42;101722.44;5323261;33;33172;-72
2024/01/11 02:57:19;;;;;;;;;;;;;;;-0.93;61.97;101699.75;5337541;32;33256;-75
2024/01/11 03:00:44;;;;;;;;;;;;;;;-1.01;61.31;101702.13;5341157;32;35533;-73
2024/01/11 03:03:59;;;;;;;;;;;;;;;-1.80;64.35;101705.72;5346658;32;34314;-75
2024/01/11 03:07:14;;;;;;;;;;;;;;;-1.53;63.39;101705.72;5343043;32;35472;-75
2024/01/11 03:10:46;;;;;;;;;;;;;;;-0.90;60.73;101698.16;5344083;32;34594;-75
2024/01/11 03:14:02;;;;;;;;;;;;;;;-0.43;59.68;101689.94;5346020;32;32331;-74
2024/01/11 03:17:21;;;;;;;;;;;;;;;-1.43;62.44;101693.97;5342112;32;33640;-75
2024/01/11 03:20:37;;;;;;;;;;;;;;;-1.66;63.18;101689.00;5337561;32;35571;-73
2024/01/11 03:23:44;;;;;;;;;;;;;;;-1.52;62.86;101680.81;5341594;32;35411;-74
2024/01/11 03:27:02;;;;;;;;;;;;;;;-1.44;63.04;101672.47;5340975;32;33848;-71
2024/01/11 03:30:11;;;;;;;;;;;;;;;-1.75;64.15;101672.34;5340641;32;35541;-76
2024/01/11 03:33:24;;;;;;;;;;;;;;;-1.64;62.79;101670.97;5383915;32;35518;-74
2024/01/11 03:36:45;;;;;;;;;;;;;;;-1.56;63.03;101666.06;5446749;32;34383;-74
2024/01/11 03:39:47;;;;;;;;;;;;;;;-1.25;62.69;101663.56;5441258;32;34359;-74
2024/01/11 03:42:49;;;;;;;;;;;;;;;-0.96;61.13;101651.50;5460337;32;34352;-73
2024/01/11 03:45:51;;;;;;;;;;;;;;;-1.27;61.37;101644.59;5498385;31;35706;-75
2024/01/11 03:48:53;;;;;;;;;;;;;;;-1.25;61.77;101654.97;5490894;32;35232;-74
2024/01/11 03:51:56;;;;;;;;;;;;;;;-1.42;62.28;101642.47;5482743;32;34324;-74
2024/01/11 03:54:58;;;;;;;;;;;;;;;-1.62;62.23;101650.41;5496689;32;35108;-74
2024/01/11 03:58:00;;;;;;;;;;;;;;;-1.92;63.62;101640.91;5468229;32;34260;-74
2024/01/11 04:01:03;;;;;;;;;;;;;;;-1.38;61.62;101635.66;5498228;31;34735;-75
2024/01/11 04:04:07;;;;;;;;;;;;;;;-2.03;63.78;101631.94;5490569;32;34188;-75
2024/01/11 04:07:09;;;;;;;;;;;;;;;-1.78;63.48;101639.63;5477309;32;34666;-76
2024/01/11 04:10:11;;;;;;;;;;;;;;;-1.56;62.53;101635.12;5496267;31;34704;-72
2024/01/11 04:13:13;;;;;;;;;;;;;;;-2.11;63.66;101629.13;5480767;32;34220;-75
2024/01/11 04:16:15;;;;;;;;;;;;;;;-1.85;63.32;101648.00;5481479;32;35299;-75
2024/01/11 04:19:17;;;;;;;;;;;;;;;-1.92;64.44;101652.09;5496432;31;34448;-74
2024/01/11 04:22:24;;;;;;;;;;;;;;;-1.76;63.38;101648.28;5494584;32;34352;-74
2024/01/11 04:25:26;;;;;;;;;;;;;;;-1.83;63.36;101637.72;5478047;32;34459;-74
2024/01/11 04:28:31;;;;;;;;;;;;;;;-1.84;63.90;101648.88;5496389;32;37315;-73
2024/01/11 04:31:35;;;;;;;;;;;;;;;-1.92;64.75;101640.91;5495696;32;35826;-72
2024/01/11 04:34:40;;;;;;;;;;;;;;;-1.49;62.67;101635.34;5471679;32;33119;-74
2024/01/11 04:37:42;;;;;;;;;;;;;;;-2.01;64.12;101661.22;5494857;32;34891;-74
2024/01/11 04:40:44;;;;;;;;;;;;;;;-1.63;63.07;101657.25;5482949;32;35435;-75
2024/01/11 04:43:46;;;;;;;;;;;;;;;-1.18;61.86;101641.41;5495573;32;35382;-75
2024/01/11 04:46:49;;;;;;;;;;;;;;;-1.61;62.96;101647.00;5492421;32;34277;-74
2024/01/11 04:49:51;;;;;;;;;;;;;;;-1.44;63.15;101645.81;5482770;32;35578;-75
2024/01/11 04:52:53;;;;;;;;;;;;;;;-1.54;62.89;101629.19;5472379;32;35592;-73
2024/01/11 04:55:55;;;;;;;;;;;;;;;-1.91;64.39;101637.50;5474949;32;34275;-73
2024/01/11 04:58:58;;;;;;;;;;;;;;;-1.52;63.42;101639.56;5482025;31;34313;-74
2024/01/11 05:02:00;;;;;;;;;;;;;;;-1.83;64.55;101646.34;5490423;32;33328;-72
2024/01/11 05:05:03;;;;;;;;;;;;;;;-1.33;63.10;101639.25;5479375;32;34312;-74
2024/01/11 05:08:05;;;;;;;;;;;;;;;-1.44;63.23;101632.91;5489059;32;35189;-73
2024/01/11 05:11:07;;;;;;;;;;;;;;;-1.49;63.35;101632.75;5497818;32;34511;-72
2024/01/11 05:14:10;;;;;;;;;;;;;;;-1.34;63.01;101629.78;5493093;32;35481;-74
2024/01/11 05:17:15;;;;;;;;;;;;;;;-1.41;63.20;101631.31;5491403;32;34428;-73
2024/01/11 05:20:18;;;;;;;;;;;;;;;-1.40;62.68;101630.47;5484947;32;34352;-74
2024/01/11 05:23:20;;;;;;;;;;;;;;;-1.80;63.19;101620.69;5490066;32;34741;-75
2024/01/11 05:26:23;;;;;;;;;;;;;;;-1.59;63.36;101620.44;5473706;32;34138;-73
2024/01/11 05:29:25;;;;;;;;;;;;;;;-1.30;62.71;101623.87;5487804;32;34300;-73
2024/01/11 05:32:27;;;;;;;;;;;;;;;-1.34;62.74;101629.78;5484047;32;35441;-74
2024/01/11 05:35:30;;;;;;;;;;;;;;;-1.04;61.49;101642.66;5491349;32;35446;-74
2024/01/11 05:38:32;;;;;;;;;;;;;;;-1.26;62.27;101637.72;5489232;32;35404;-72
2024/01/11 05:41:34;;;;;;;;;;;;;;;-1.29;62.25;101641.09;5481374;32;34207;-74
2024/01/11 05:44:36;;;;;;;;;;;;;;;-1.86;63.68;101646.25;5489868;32;34786;-75
2024/01/11 05:47:39;;;;;;;;;;;;;;;-1.06;62.27;101633.13;5494548;32;34244;-74
2024/01/11 05:50:41;;;;;;;;;;;;;;;-1.50;62.60;101633.59;5494500;32;35554;-75
2024/01/11 05:53:43;;;;;;;;;;;;;;;-1.72;62.03;101638.94;5491089;32;34230;-73
2024/01/11 05:56:46;;;;;;;;;;;;;;;-1.10;61.20;101627.88;5487513;32;34247;-74
2024/01/11 05:59:48;;;;;;;;;;;;;;;-0.96;60.88;101640.31;5492149;32;35441;-74
2024/01/11 06:02:50;;;;;;;;;;;;;;;-1.07;61.23;101631.41;5491683;32;35691;-72
2024/01/11 06:05:52;;;;;;;;;;;;;;;-0.60;59.49;101633.53;5477716;32;35440;-73
2024/01/11 06:08:54;;;;;;;;;;;;;;;-1.49;61.65;101634.47;5491797;32;34444;-73
2024/01/11 06:11:56;;;;;;;;;;;;;;;-1.10;61.10;101637.31;5491766;32;34528;-75
2024/01/11 06:14:58;;;;;;;;;;;;;;;-1.39;61.67;101628.75;5479417;32;35432;-74
2024/01/11 06:18:00;;;;;;;;;;;;;;;-1.20;61.62;101625.88;5488975;32;35820;-73
2024/01/11 06:21:03;;;;;;;;;;;;;;;-0.71;59.97;101616.91;5488357;32;34281;-73
2024/01/11 06:24:05;;;;;;;;;;;;;;;-1.43;61.44;101616.59;5481709;32;34525;-73
2024/01/11 06:27:07;;;;;;;;;;;;;;;-1.66;63.71;101624.53;5498266;32;37236;-75
2024/01/11 06:30:09;;;;;;;;;;;;;;;-1.37;62.43;101621.94;5503862;32;34573;-75
2024/01/11 06:33:11;;;;;;;;;;;;;;;-1.48;62.67;101618.16;5497918;32;34485;-74
2024/01/11 06:36:14;;;;;;;;;;;;;;;-1.56;63.45;101617.06;5500142;32;34524;-74
2024/01/11 06:39:16;;;;;;;;;;;;;;;-0.51;60.54;101609.69;5471009;32;34313;-73
2024/01/11 06:42:18;;;;;;;;;;;;;;;-1.17;60.90;101613.06;5472425;31;37386;-73
2024/01/11 06:45:21;;;;;;;;;;;;;;;-1.08;62.23;101616.75;5479061;32;34077;-74
2024/01/11 06:48:22;;;;;;;;;;;;;;;-1.39;63.24;101610.72;5488151;31;36795;-74
2024/01/11 06:51:25;;;;;;;;;;;;;;;-0.71;60.53;101610.84;5474773;32;35407;-72
2024/01/11 06:54:27;;;;;;;;;;;;;;;-0.90;61.40;101612.06;5487744;32;34755;-70
2024/01/11 06:57:29;;;;;;;;;;;;;;;-0.93;60.42;101605.12;5477121;32;34346;-76
2024/01/11 07:00:31;;;;;;;;;;;;;;;-1.12;61.96;101606.31;5474171;32;34220;-71
2024/01/11 07:03:36;;;;;;;;;;;;;;;-0.48;60.19;101609.75;5456096;32;34210;-75
2024/01/11 07:06:38;;;;;;;;;;;;;;;-0.94;61.05;101618.00;5491524;32;34274;-76
2024/01/11 07:09:40;;;;;;;;;;;;;;;-0.91;61.13;101605.16;5489894;32;35452;-74
2024/01/11 07:12:42;;;;;;;;;;;;;;;-0.86;60.78;101603.59;5484988;32;34433;-74
2024/01/11 07:15:45;;;;;;;;;;;;;;;-0.91;61.06;101608.62;5492321;32;34392;-73
2024/01/11 07:18:48;;;;;;;;;;;;;;;-0.66;61.23;101610.16;5487805;31;34274;-71
2024/01/11 07:21:50;;;;;;;;;;;;;;;-0.35;60.13;101598.00;5489958;32;34148;-77
2024/01/11 07:24:53;;;;;;;;;;;;;;;-0.19;59.36;101588.91;5475823;32;33803;-71
2024/01/11 07:27:55;;;;;;;;;;;;;;;-0.78;60.99;101589.16;5490242;31;34440;-74
2024/01/11 07:30:57;;;;;;;;;;;;;;;-0.50;61.55;101600.22;5488772;31;34524;-81
2024/01/11 07:34:03;;;;;;;;;;;;;;;-0.16;60.53;101596.75;5471835;31;35378;-85
2024/01/11 07:37:05;;;;;;;;;;;;;;;-0.27;60.39;101597.34;5488422;31;33733;-83
2024/01/11 07:40:10;;;;;;;;;;;;;;;0.10;59.28;101594.78;5480009;32;35281;-74
2024/01/11 07:43:13;;;;;;;;;;;;;;;-0.03;59.44;101594.50;5478365;32;32500;-82
2024/01/11 07:46:19;;;;;;;;;;;;;;;0.28;58.60;101594.31;5481291;32;36265;-80
2024/01/11 07:49:34;;;;;;;;;;;;;;;0.65;56.91;101590.81;5488919;32;34051;-75
2024/01/11 07:52:37;;;;;;;;;;;;;;;0.95;56.48;101583.63;5464993;32;34173;-75
2024/01/11 07:55:39;;;;;;;;;;;;;;;0.94;56.43;101591.38;5493341;31;34392;-68
2024/01/11 07:58:41;;;;;;;;;;;;;;;1.47;55.25;101579.37;5482862;32;34429;-70
2024/01/11 08:01:46;;;;;;;;;;;;;;;1.19;55.63;101582.34;5482997;32;34339;-68
2024/01/11 08:04:51;;;;;;;;;;;;;;;1.91;52.85;101566.28;5480747;32;34286;-84
2024/01/11 08:07:53;;;;;;;;;;;;;;;1.88;53.24;101563.66;5474462;32;35495;-68
2024/01/11 08:10:56;;;;;;;;;;;;;;;2.19;51.92;101559.78;5475055;32;35259;-75
2024/01/11 08:13:59;;;;;;;;;;;;;;;1.81;53.04;101564.41;5487948;32;35457;-69
2024/01/11 08:17:02;;;;;;;;;;;;;;;2.00;52.65;101548.28;5477762;32;35490;-73
2024/01/11 08:20:07;;;;;;;;;;;;;;;2.30;51.62;101545.22;5472060;32;35563;-73
2024/01/11 08:23:11;;;;;;;;;;;;;;;1.95;51.71;101547.34;5483784;32;34329;-76
2024/01/11 08:26:14;;;;;;;;;;;;;;;2.24;51.56;101539.06;5465073;32;33399;-75
2024/01/11 08:29:18;;;;;;;;;;;;;;;1.77;51.57;101539.28;5491465;32;35753;-76
2024/01/11 08:32:21;;;;;;;;;;;;;;;1.65;51.57;101537.38;5470266;32;34229;-76
2024/01/11 08:35:32;;;;;;;;;;;;;;;2.04;49.94;101531.91;5474745;32;34413;-71
2024/01/11 08:38:35;;;;;;;;;;;;;;;1.97;50.01;101535.25;5488943;32;34139;-71
2024/01/11 08:41:40;;;;;;;;;;;;;;;2.27;49.21;101527.03;5490300;32;35923;-76
2024/01/11 08:44:42;;;;;;;;;;;;;;;1.95;49.51;101526.59;5487407;32;34469;-70
2024/01/11 08:47:45;;;;;;;;;;;;;;;0.82;50.89;101529.88;5492510;32;35303;-71
2024/01/11 08:50:47;;;;;;;;;;;;;;;0.68;52.95;101528.75;5469625;32;34151;-68
2024/01/11 08:53:49;;;;;;;;;;;;;;;1.54;50.16;101521.63;5489082;32;34064;-68
2024/01/11 08:56:52;;;;;;;;;;;;;;;2.18;47.90;101522.56;5489922;32;35851;-70
2024/01/11 08:59:56;;;;;;;;;;;;;;;2.31;47.34;101531.38;5459531;32;35510;-70
2024/01/11 09:02:59;;;;;;;;;;;;;;;1.87;47.37;101533.41;5484462;32;36046;-71
2024/01/11 09:06:02;;;;;;;;;;;;;;;2.64;45.86;101522.25;5490335;32;34155;-75
2024/01/11 09:09:09;;;;;;;;;;;;;;;2.72;44.82;101521.53;5479636;32;34144;-70
2024/01/11 09:12:11;;;;;;;;;;;;;;;2.70;43.57;101527.53;5470193;32;35601;-75
2024/01/11 09:15:14;;;;;;;;;;;;;;;2.55;43.38;101512.66;5492058;32;35093;-72
2024/01/11 09:18:17;;;;;;;;;;;;;;;3.07;42.15;101505.41;5471358;32;34597;-76
2024/01/11 09:21:22;;;;;;;;;;;;;;;2.78;41.73;101509.47;5470551;32;34800;-84
2024/01/11 09:24:25;;;;;;;;;;;;;;;1.76;44.92;101517.66;5471511;32;34647;-74
2024/01/11 09:27:36;;;;;;;;;;;;;;;1.43;46.29;101514.56;5463219;32;35236;-78
2024/01/11 09:30:38;;;;;;;;;;;;;;;2.39;42.72;101492.59;5475259;32;34252;-67
2024/01/11 09:33:45;;;;;;;;;;;;;;;2.53;42.48;101493.63;5481197;32;34212;-64
2024/01/11 09:36:47;;;;;;;;;;;;;;;2.33;42.37;101475.22;5488760;32;34086;-69
2024/01/11 09:39:50;;;;;;;;;;;;;;;2.54;42.21;101472.00;5487364;32;35509;-68
2024/01/11 09:42:53;;;;;;;;;;;;;;;3.06;40.51;101453.47;5486248;32;34256;-72
2024/01/11 09:45:57;;;;;;;;;;;;;;;2.43;41.25;101445.91;5475777;32;34192;-69
2024/01/11 09:48:59;;;;;;;;;;;;;;;2.82;40.67;101420.34;5482513;32;34250;-70
2024/01/11 09:52:01;;;;;;;;;;;;;;;3.34;39.41;101423.34;5490297;32;35568;-79
2024/01/11 09:55:05;;;;;;;;;;;;;;;2.25;41.04;101426.66;5492365;32;36682;-73
2024/01/11 09:58:07;;;;;;;;;;;;;;;3.26;39.45;101416.37;5460401;32;34397;-72
2024/01/11 10:01:12;;;;;;;;;;;;;;;2.82;38.17;101402.16;5460811;32;34920;-72
2024/01/11 10:04:14;;;;;;;;;;;;;;;2.78;38.68;101405.63;5476716;31;36402;-73
2024/01/11 10:07:21;;;;;;;;;;;;;;;2.72;39.04;101393.44;5467843;32;35150;-73
2024/01/11 10:10:24;;;;;;;;;;;;;;;3.02;38.61;101392.81;5477708;32;35317;-71
2024/01/11 10:13:29;;;;;;;;;;;;;;;3.55;37.49;101387.13;5471681;32;35457;-72
2024/01/11 10:16:31;;;;;;;;;;;;;;;3.35;36.37;101381.81;5491224;32;35438;-78
2024/01/11 10:19:36;;;;;;;;;;;;;;;3.57;36.10;101375.00;5437791;32;963131;-74
2024/01/11 10:22:39;;;;;;;;;;;;;;;3.61;35.41;101361.16;5471359;32;34656;-70
2024/01/11 10:25:42;;;;;;;;;;;;;;;3.29;36.21;101357.53;5483282;31;34688;-86
2024/01/11 10:28:44;;;;;;;;;;;;;;;3.56;36.12;101365.47;5470991;32;35261;-74
2024/01/11 10:31:47;;;;;;;;;;;;;;;4.29;34.56;101352.72;5499148;31;36194;-70
2024/01/11 10:34:49;;;;;;;;;;;;;;;4.26;35.11;101357.94;5469248;32;34314;-70
2024/01/11 10:37:53;;;;;;;;;;;;;;;3.84;35.38;101353.44;5484098;32;34250;-76
2024/01/11 10:40:56;;;;;;;;;;;;;;;4.49;34.70;101352.75;5473356;32;34264;-77
2024/01/11 10:43:59;;;;;;;;;;;;;;;4.38;34.55;101340.56;5494523;32;35293;-76
2024/01/11 10:47:06;;;;;;;;;;;;;;;3.69;35.92;101335.19;5463452;32;34609;-79
2024/01/11 10:50:11;;;;;;;;;;;;;;;3.93;35.64;101331.78;5493678;32;35487;-81
2024/01/11 10:53:13;;;;;;;;;;;;;;;4.26;35.22;101331.91;5475591;32;34205;-77
2024/01/11 10:56:16;;;;;;;;;;;;;;;3.61;36.54;101324.78;5494416;32;34203;-72
2024/01/11 10:59:18;;;;;;;;;;;;;;;4.42;35.53;101314.56;5460703;32;34261;-72
2024/01/11 11:02:21;;;;;;;;;;;;;;;3.93;36.78;101305.78;5457237;32;35517;-76
2024/01/11 11:05:24;;;;;;;;;;;;;;;4.07;37.36;101298.91;5477145;32;35383;-73
2024/01/11 11:08:26;;;;;;;;;;;;;;;3.57;38.45;101297.00;5470154;32;36339;-69
2024/01/11 11:11:30;;;;;;;;;;;;;;;4.43;37.45;101286.78;5475907;32;34213;-75
2024/01/11 11:14:35;;;;;;;;;;;;;;;4.74;37.27;101295.47;5487628;32;34899;-91
2024/01/11 11:17:37;;;;;;;;;;;;;;;5.58;36.05;101288.31;5484819;32;34610;-69
2024/01/11 11:20:42;;;;;;;;;;;;;;;6.93;33.26;101274.34;5490472;32;34141;-67
2024/01/11 11:23:46;;;;;;;;;;;;;;;8.23;31.44;101270.06;5489828;31;34335;-69
2024/01/11 11:26:48;;;;;;;;;;;;;;;8.97;29.07;101269.72;5461413;32;35645;-70
2024/01/11 11:29:50;;;;;;;;;;;;;;;8.56;29.91;101271.31;5473497;32;37632;-68
2024/01/11 11:32:56;;;;;;;;;;;;;;;7.56;30.92;101269.25;5477033;32;34169;-72
2024/01/11 11:36:00;;;;;;;;;;;;;;;7.82;32.15;101263.69;5488557;32;35434;-67
2024/01/11 11:39:02;;;;;;;;;;;;;;;8.68;31.59;101250.13;5474753;32;34181;-69
2024/01/11 11:42:04;;;;;;;;;;;;;;;9.14;30.79;101246.66;5490453;32;34653;-71
2024/01/11 11:45:12;;;;;;;;;;;;;;;9.64;29.80;101232.50;5473489;32;34714;-75
2024/01/11 11:48:29;;;;;;;;;;;;;;;10.49;30.18;101228.78;5475509;32;35217;-75
2024/01/11 11:51:32;;;;;;;;;;;;;;;11.09;28.21;101235.97;5482506;31;33968;-79
2024/01/11 11:54:34;;;;;;;;;;;;;;;9.25;30.23;101251.69;5473268;32;34727;-72
2024/01/11 11:57:36;;;;;;;;;;;;;;;10.37;28.29;101235.22;5474761;32;34526;-77
2024/01/11 12:00:38;;;;;;;;;;;;;;;7.68;33.12;101239.47;5486490;32;34327;-71
2024/01/11 12:03:42;;;;;;;;;;;;;;;11.41;27.89;101207.88;5477900;32;33979;-72
2024/01/11 12:06:45;;;;;;;;;;;;;;;11.27;27.39;101201.25;5488436;32;34218;-73
2024/01/11 12:09:49;;;;;;;;;;;;;;;10.33;28.80;101216.94;5477296;32;34391;-70
2024/01/11 12:12:51;;;;;;;;;;;;;;;10.37;29.02;101205.44;5475794;32;35102;-72
2024/01/11 12:15:55;;;;;;;;;;;;;;;11.73;27.72;101194.59;5492601;31;36610;-72
2024/01/11 12:18:58;;;;;;;;;;;;;;;11.98;27.22;101183.28;5480785;32;34783;-73
2024/01/11 12:22:03;;;;;;;;;;;;;;;14.35;23.80;101178.00;5475936;32;33314;-71
2024/01/11 12:25:05;;;;;;;;;;;;;;;15.31;22.59;101170.25;5478246;32;35579;-70
2024/01/11 12:28:07;;;;;;;;;;;;;;;16.03;21.43;101178.31;5473063;32;35485;-73
2024/01/11 12:31:09;;;;;;;;;;;;;;;16.77;20.10;101160.41;5466137;32;35026;-75
2024/01/11 12:34:12;;;;;;;;;;;;;;;15.99;21.28;101166.16;5492243;32;34177;-73
2024/01/11 12:37:15;;;;;;;;;;;;;;;13.60;24.08;101185.50;5474202;32;34461;-73
2024/01/11 12:40:18;;;;;;;;;;;;;;;12.19;26.03;101183.47;5495394;31;35440;-72
2024/01/11 12:43:20;;;;;;;;;;;;;;;12.31;26.20;101186.63;5487577;31;35827;-70
2024/01/11 12:46:24;;;;;;;;;;;;;;;12.59;25.44;101187.41;5494946;32;34324;-71
2024/01/11 12:49:27;;;;;;;;;;;;;;;9.76;28.10;101207.75;5476808;32;34174;-69
2024/01/11 12:52:30;;;;;;;;;;;;;;;9.44;29.88;101196.19;5490131;32;34292;-66
2024/01/11 12:55:34;;;;;;;;;;;;;;;8.74;31.48;101196.75;5478482;32;35345;-78
2024/01/11 12:59:05;;;;;;;;;;;;;;;9.73;30.21;101190.31;5483418;32;34114;-72
2024/01/11 13:02:07;;;;;;;;;;;;;;;7.52;33.51;101184.72;5480800;32;34330;-73
2024/01/11 13:05:09;;;;;;;;;;;;;;;9.80;30.12;101171.78;5492002;31;34248;-70
2024/01/11 13:08:11;;;;;;;;;;;;;;;8.40;30.65;101174.62;5476143;32;34109;-73
2024/01/11 13:11:16;;;;;;;;;;;;;;;6.80;33.96;101169.06;5490989;32;35500;-65
2024/01/11 13:14:19;;;;;;;;;;;;;;;7.83;31.27;101165.97;5488133;32;34330;-70
2024/01/11 13:17:21;;;;;;;;;;;;;;;7.67;31.37;101148.78;5476985;32;34536;-71
2024/01/11 13:20:24;;;;;;;;;;;;;;;5.82;34.52;101151.66;5491691;32;35210;-73
2024/01/11 13:23:28;;;;;;;;;;;;;;;6.40;34.48;101135.53;5477612;32;32636;-70
2024/01/11 13:26:30;;;;;;;;;;;;;;;5.59;35.97;101153.56;5484434;32;34593;-70
2024/01/11 13:29:32;;;;;;;;;;;;;;;6.04;35.55;101141.09;5495440;31;34120;-70
2024/01/11 13:32:35;;;;;;;;;;;;;;;5.91;34.38;101129.88;5495097;31;34324;-68
2024/01/11 13:35:40;;;;;;;;;;;;;;;5.57;33.36;101135.31;5495497;31;35295;-71
2024/01/11 13:38:43;;;;;;;;;;;;;;;4.06;35.86;101135.88;5477313;32;34270;-75
2024/01/11 13:41:45;;;;;;;;;;;;;;;5.38;34.51;101121.53;5490455;32;35446;-76
2024/01/11 13:44:47;;;;;;;;;;;;;;;4.44;34.54;101132.34;5491883;32;35478;-69
2024/01/11 13:47:49;;;;;;;;;;;;;;;4.85;34.49;101121.81;5476902;32;34514;-69
2024/01/11 13:50:51;;;;;;;;;;;;;;;5.36;32.93;101123.31;5478485;32;34727;-72
2024/01/11 13:53:54;;;;;;;;;;;;;;;5.19;33.42;101103.41;5485880;32;34583;-65
2024/01/11 13:56:58;;;;;;;;;;;;;;;4.85;32.90;101095.78;5484456;32;35839;-72
2024/01/11 14:00:00;;;;;;;;;;;;;;;4.79;33.52;101099.25;5486228;31;35400;-73
2024/01/11 14:03:04;;;;;;;;;;;;;;;4.09;33.45;101094.25;5495684;31;34170;-76
2024/01/11 14:06:07;;;;;;;;;;;;;;;4.39;33.30;101090.72;5488420;32;34190;-73
2024/01/11 14:09:10;;;;;;;;;;;;;;;3.91;34.11;101082.13;5490861;32;34417;-67
2024/01/11 14:12:12;;;;;;;;;;;;;;;4.69;33.43;101068.91;5493533;32;34369;-66
2024/01/11 14:15:16;;;;;;;;;;;;;;;4.03;34.34;101058.69;5494949;32;35427;-70
2024/01/11 14:18:20;;;;;;;;;;;;;;;4.78;32.71;101041.97;5463695;32;35529;-73
2024/01/11 14:21:22;;;;;;;;;;;;;;;4.29;33.24;101042.16;5478524;32;34384;-70
2024/01/11 14:24:25;;;;;;;;;;;;;;;4.46;33.32;101036.91;5485930;32;35409;-67
2024/01/11 14:27:37;;;;;;;;;;;;;;;5.34;32.11;101025.09;5489804;32;34312;-67
2024/01/11 14:30:42;;;;;;;;;;;;;;;5.28;32.38;101040.78;5470847;32;34610;-69
2024/01/11 14:33:44;;;;;;;;;;;;;;;4.97;33.38;101030.59;5462018;32;35453;-71
2024/01/11 14:36:50;;;;;;;;;;;;;;;4.55;34.52;101034.25;5478692;31;35577;-76
2024/01/11 14:39:52;;;;;;;;;;;;;;;4.16;35.51;101041.31;5485592;31;34235;-73
2024/01/11 14:42:54;;;;;;;;;;;;;;;4.04;36.63;101042.22;5492530;31;37730;-72
2024/01/11 14:45:56;;;;;;;;;;;;;;;2.86;39.00;101043.03;5474557;32;34182;-64
2024/01/11 14:49:00;;;;;;;;;;;;;;;3.24;38.47;101049.19;5475912;32;33998;-68
2024/01/11 14:52:03;;;;;;;;;;;;;;;3.35;39.17;101043.13;5483523;31;35744;-72
2024/01/11 14:55:11;;;;;;;;;;;;;;;4.21;37.63;101036.13;5488776;32;34336;-68
2024/01/11 14:58:13;;;;;;;;;;;;;;;4.01;37.70;101031.84;5488995;32;34264;-71
2024/01/11 15:01:15;;;;;;;;;;;;;;;3.08;38.63;101029.22;5453924;32;34311;-72
2024/01/11 15:04:17;;;;;;;;;;;;;;;3.48;38.65;101013.69;5483826;32;35316;-69
2024/01/11 15:07:20;;;;;;;;;;;;;;;3.69;38.48;101026.69;5481491;32;35034;-73
2024/01/11 15:10:23;;;;;;;;;;;;;;;2.80;40.28;101017.94;5458988;32;35578;-68
2024/01/11 15:13:25;;;;;;;;;;;;;;;3.61;39.14;101037.97;5488418;32;35422;-68
2024/01/11 15:16:27;;;;;;;;;;;;;;;2.79;39.95;101021.41;5484675;32;34119;-67
2024/01/11 15:19:29;;;;;;;;;;;;;;;3.30;39.69;101021.47;5459822;32;34236;-68
2024/01/11 15:22:32;;;;;;;;;;;;;;;2.61;41.70;101027.37;5483618;32;36275;-69
2024/01/11 15:25:34;;;;;;;;;;;;;;;3.39;40.31;101022.34;5487469;32;34431;-67
2024/01/11 15:28:36;;;;;;;;;;;;;;;3.10;40.50;101034.44;5489300;32;35299;-69
2024/01/11 15:31:40;;;;;;;;;;;;;;;2.57;41.52;101028.22;5477726;32;35472;-71
2024/01/11 15:34:42;;;;;;;;;;;;;;;3.19;41.04;101026.66;5485845;32;34781;-67
2024/01/11 15:37:44;;;;;;;;;;;;;;;3.02;41.76;101015.38;5489134;32;34323;-68
2024/01/11 15:40:47;;;;;;;;;;;;;;;2.98;41.71;101006.72;5472739;32;34264;-70
2024/01/11 15:43:50;;;;;;;;;;;;;;;3.64;40.01;100996.34;5489705;32;34379;-68
2024/01/11 15:46:52;;;;;;;;;;;;;;;3.04;39.88;101009.34;5485145;32;34592;-71
2024/01/11 15:49:54;;;;;;;;;;;;;;;3.78;38.75;101008.44;5492420;31;34287;-68
2024/01/11 15:52:56;;;;;;;;;;;;;;;3.23;40.05;101011.09;5491739;32;35702;-71
2024/01/11 15:55:58;;;;;;;;;;;;;;;3.47;39.40;101005.00;5494043;32;34507;-69
2024/01/11 15:59:02;;;;;;;;;;;;;;;3.67;38.47;101001.53;5469997;32;34697;-68
2024/01/11 16:02:05;;;;;;;;;;;;;;;3.33;39.21;101016.28;5483486;32;35590;-69
2024/01/11 16:05:09;;;;;;;;;;;;;;;3.28;39.43;101005.00;5478147;32;34343;-70
2024/01/11 16:08:12;;;;;;;;;;;;;;;3.49;39.04;101012.84;5496770;32;34384;-68